sensor_id;sensor_type;location;lat;lon;timestamp;P1;durP1;ratioP1;P2;durP2;ratioP2
16113;SDS011;8161;-33.910;151.156;2023-10-19T00:00:54;4.03;;;0.93;;
16113;SDS011;8161;-33.910;151.156;2023-10-19T00:03:22;4.27;;;0.80;;
16113;SDS011;8161;-33.910;151.156;2023-10-19T00:05:50;5.43;;;0.80;;
16113;SDS011;8161;-33.910;151.156;2023-10-19T00:08:17;7.28;;;0.90;;
16113;SDS011;8161;-33.910;151.156;2023-10-19T00:10:50;4.63;;;0.82;;
16113;SDS011;8161;-33.910;151.156;2023-10-19T00:13:41;2.78;;;0.75;;
16113;SDS011;8161;-33.910;151.156;2023-10-19T00:16:09;2.87;;;0.80;;
16113;SDS011;8161;-33.910;151.156;2023-10-19T00:18:39;3.13;;;0.80;;
16113;SDS011;8161;-33.910;151.156;2023-10-19T00:21:08;3.47;;;0.70;;
16113;SDS011;8161;-33.910;151.156;2023-10-19T00:23:55;2.97;;;0.70;;
16113;SDS011;8161;-33.910;151.156;2023-10-19T00:26:28;4.30;;;0.85;;
16113;SDS011;8161;-33.910;151.156;2023-10-19T00:28:56;3.70;;;0.90;;
16113;SDS011;8161;-33.910;151.156;2023-10-19T00:31:23;3.33;;;1.00;;
16113;SDS011;8161;-33.910;151.156;2023-10-19T00:33:55;2.90;;;0.70;;
16113;SDS011;8161;-33.910;151.156;2023-10-19T00:36:28;3.22;;;0.70;;
16113;SDS011;8161;-33.910;151.156;2023-10-19T00:38:57;3.90;;;0.93;;
16113;SDS011;8161;-33.910;151.156;2023-10-19T00:41:26;4.60;;;0.90;;
16113;SDS011;8161;-33.910;151.156;2023-10-19T00:43:57;3.85;;;1.10;;
16113;SDS011;8161;-33.910;151.156;2023-10-19T00:46:39;3.47;;;0.80;;
16113;SDS011;8161;-33.910;151.156;2023-10-19T00:49:09;5.50;;;1.00;;
16113;SDS011;8161;-33.910;151.156;2023-10-19T00:51:41;3.83;;;0.60;;
16113;SDS011;8161;-33.910;151.156;2023-10-19T00:57:07;3.97;;;0.82;;
16113;SDS011;8161;-33.910;151.156;2023-10-19T00:59:38;2.53;;;0.88;;
16113;SDS011;8161;-33.910;151.156;2023-10-19T01:02:10;3.83;;;0.88;;
16113;SDS011;8161;-33.910;151.156;2023-10-19T01:04:46;2.87;;;0.70;;
16113;SDS011;8161;-33.910;151.156;2023-10-19T01:07:25;3.75;;;0.93;;
16113;SDS011;8161;-33.910;151.156;2023-10-19T01:09:58;4.05;;;0.80;;
16113;SDS011;8161;-33.910;151.156;2023-10-19T01:12:26;2.97;;;0.88;;
16113;SDS011;8161;-33.910;151.156;2023-10-19T01:15:15;3.70;;;0.73;;
16113;SDS011;8161;-33.910;151.156;2023-10-19T01:17:44;6.75;;;1.05;;
16113;SDS011;8161;-33.910;151.156;2023-10-19T01:20:15;3.28;;;0.73;;
16113;SDS011;8161;-33.910;151.156;2023-10-19T01:22:54;3.97;;;0.70;;
16113;SDS011;8161;-33.910;151.156;2023-10-19T01:28:20;4.65;;;0.90;;
16113;SDS011;8161;-33.910;151.156;2023-10-19T01:31:09;2.65;;;0.57;;
16113;SDS011;8161;-33.910;151.156;2023-10-19T01:33:48;3.15;;;0.68;;
16113;SDS011;8161;-33.910;151.156;2023-10-19T01:36:16;3.53;;;0.90;;
16113;SDS011;8161;-33.910;151.156;2023-10-19T01:38:46;4.07;;;1.00;;
16113;SDS011;8161;-33.910;151.156;2023-10-19T01:41:13;3.38;;;0.77;;
16113;SDS011;8161;-33.910;151.156;2023-10-19T01:43:44;3.40;;;0.82;;
16113;SDS011;8161;-33.910;151.156;2023-10-19T01:46:13;7.35;;;0.82;;
16113;SDS011;8161;-33.910;151.156;2023-10-19T01:48:51;2.83;;;0.80;;
16113;SDS011;8161;-33.910;151.156;2023-10-19T01:51:23;2.20;;;0.60;;
16113;SDS011;8161;-33.910;151.156;2023-10-19T01:53:52;2.35;;;0.60;;
16113;SDS011;8161;-33.910;151.156;2023-10-19T01:56:21;5.97;;;0.80;;
16113;SDS011;8161;-33.910;151.156;2023-10-19T01:58:49;4.75;;;0.95;;
16113;SDS011;8161;-33.910;151.156;2023-10-19T02:01:24;3.30;;;0.75;;
16113;SDS011;8161;-33.910;151.156;2023-10-19T02:04:00;4.70;;;1.00;;
16113;SDS011;8161;-33.910;151.156;2023-10-19T02:06:32;5.57;;;0.85;;
16113;SDS011;8161;-33.910;151.156;2023-10-19T02:09:09;5.15;;;1.00;;
16113;SDS011;8161;-33.910;151.156;2023-10-19T02:12:03;3.25;;;1.02;;
16113;SDS011;8161;-33.910;151.156;2023-10-19T02:14:32;5.70;;;1.10;;
16113;SDS011;8161;-33.910;151.156;2023-10-19T02:16:59;4.25;;;0.70;;
16113;SDS011;8161;-33.910;151.156;2023-10-19T02:19:29;4.65;;;0.80;;
16113;SDS011;8161;-33.910;151.156;2023-10-19T02:21:59;5.97;;;1.10;;
16113;SDS011;8161;-33.910;151.156;2023-10-19T02:24:29;3.70;;;0.95;;
16113;SDS011;8161;-33.910;151.156;2023-10-19T02:26:56;5.55;;;1.48;;
16113;SDS011;8161;-33.910;151.156;2023-10-19T02:29:26;6.22;;;1.00;;
16113;SDS011;8161;-33.910;151.156;2023-10-19T02:31:54;5.70;;;1.70;;
16113;SDS011;8161;-33.910;151.156;2023-10-19T02:34:22;3.60;;;0.93;;
16113;SDS011;8161;-33.910;151.156;2023-10-19T02:36:49;7.95;;;1.10;;
16113;SDS011;8161;-33.910;151.156;2023-10-19T02:39:16;4.55;;;1.05;;
16113;SDS011;8161;-33.910;151.156;2023-10-19T02:41:44;5.93;;;0.90;;
16113;SDS011;8161;-33.910;151.156;2023-10-19T02:44:15;3.65;;;0.77;;
16113;SDS011;8161;-33.910;151.156;2023-10-19T02:46:43;4.18;;;1.00;;
16113;SDS011;8161;-33.910;151.156;2023-10-19T02:49:11;4.07;;;0.90;;
16113;SDS011;8161;-33.910;151.156;2023-10-19T02:51:41;3.45;;;0.70;;
16113;SDS011;8161;-33.910;151.156;2023-10-19T02:54:12;4.80;;;0.90;;
16113;SDS011;8161;-33.910;151.156;2023-10-19T02:56:50;4.30;;;0.70;;
16113;SDS011;8161;-33.910;151.156;2023-10-19T02:59:19;3.03;;;0.70;;
16113;SDS011;8161;-33.910;151.156;2023-10-19T03:01:51;4.40;;;0.82;;
16113;SDS011;8161;-33.910;151.156;2023-10-19T03:04:26;2.90;;;0.55;;
16113;SDS011;8161;-33.910;151.156;2023-10-19T03:06:56;3.53;;;0.70;;
16113;SDS011;8161;-33.910;151.156;2023-10-19T03:09:23;2.58;;;0.50;;
16113;SDS011;8161;-33.910;151.156;2023-10-19T03:11:53;3.80;;;0.75;;
16113;SDS011;8161;-33.910;151.156;2023-10-19T03:14:28;3.53;;;0.70;;
16113;SDS011;8161;-33.910;151.156;2023-10-19T03:16:55;4.15;;;0.73;;
16113;SDS011;8161;-33.910;151.156;2023-10-19T03:19:26;3.25;;;0.75;;
16113;SDS011;8161;-33.910;151.156;2023-10-19T03:21:53;3.08;;;1.00;;
16113;SDS011;8161;-33.910;151.156;2023-10-19T03:24:21;2.25;;;0.93;;
16113;SDS011;8161;-33.910;151.156;2023-10-19T03:27:07;3.03;;;1.08;;
16113;SDS011;8161;-33.910;151.156;2023-10-19T03:29:56;6.63;;;1.20;;
16113;SDS011;8161;-33.910;151.156;2023-10-19T03:32:29;4.80;;;1.00;;
16113;SDS011;8161;-33.910;151.156;2023-10-19T03:35:00;3.42;;;0.70;;
16113;SDS011;8161;-33.910;151.156;2023-10-19T03:37:30;9.60;;;1.75;;
16113;SDS011;8161;-33.910;151.156;2023-10-19T03:39:57;3.85;;;0.90;;
16113;SDS011;8161;-33.910;151.156;2023-10-19T03:42:25;3.22;;;0.75;;
16113;SDS011;8161;-33.910;151.156;2023-10-19T03:44:55;3.50;;;0.93;;
16113;SDS011;8161;-33.910;151.156;2023-10-19T03:47:23;3.97;;;0.90;;
16113;SDS011;8161;-33.910;151.156;2023-10-19T03:50:00;2.47;;;0.82;;
16113;SDS011;8161;-33.910;151.156;2023-10-19T03:52:51;6.57;;;1.08;;
16113;SDS011;8161;-33.910;151.156;2023-10-19T03:55:19;4.72;;;1.10;;
16113;SDS011;8161;-33.910;151.156;2023-10-19T03:57:49;3.97;;;1.10;;
16113;SDS011;8161;-33.910;151.156;2023-10-19T04:00:21;7.22;;;1.15;;
16113;SDS011;8161;-33.910;151.156;2023-10-19T04:02:54;6.60;;;1.52;;
16113;SDS011;8161;-33.910;151.156;2023-10-19T04:05:21;4.67;;;1.13;;
16113;SDS011;8161;-33.910;151.156;2023-10-19T04:07:48;4.78;;;1.20;;
16113;SDS011;8161;-33.910;151.156;2023-10-19T04:10:17;4.63;;;1.10;;
16113;SDS011;8161;-33.910;151.156;2023-10-19T04:12:58;5.32;;;1.10;;
16113;SDS011;8161;-33.910;151.156;2023-10-19T04:15:26;4.75;;;1.00;;
16113;SDS011;8161;-33.910;151.156;2023-10-19T04:17:54;4.50;;;0.85;;
16113;SDS011;8161;-33.910;151.156;2023-10-19T04:20:24;3.80;;;1.17;;
16113;SDS011;8161;-33.910;151.156;2023-10-19T04:22:52;3.45;;;1.00;;
16113;SDS011;8161;-33.910;151.156;2023-10-19T04:25:19;6.20;;;1.17;;
16113;SDS011;8161;-33.910;151.156;2023-10-19T04:27:53;6.00;;;0.90;;
16113;SDS011;8161;-33.910;151.156;2023-10-19T04:30:22;5.30;;;1.13;;
16113;SDS011;8161;-33.910;151.156;2023-10-19T04:32:52;3.08;;;0.80;;
16113;SDS011;8161;-33.910;151.156;2023-10-19T04:35:23;6.82;;;1.05;;
16113;SDS011;8161;-33.910;151.156;2023-10-19T04:37:55;4.50;;;1.10;;
16113;SDS011;8161;-33.910;151.156;2023-10-19T04:40:22;6.80;;;1.10;;
16113;SDS011;8161;-33.910;151.156;2023-10-19T04:42:51;5.13;;;1.20;;
16113;SDS011;8161;-33.910;151.156;2023-10-19T04:45:28;4.05;;;1.00;;
16113;SDS011;8161;-33.910;151.156;2023-10-19T04:48:01;5.75;;;1.00;;
16113;SDS011;8161;-33.910;151.156;2023-10-19T04:50:29;6.57;;;1.33;;
16113;SDS011;8161;-33.910;151.156;2023-10-19T04:52:57;7.65;;;0.98;;
16113;SDS011;8161;-33.910;151.156;2023-10-19T04:55:24;3.53;;;1.05;;
16113;SDS011;8161;-33.910;151.156;2023-10-19T04:57:53;2.70;;;0.75;;
16113;SDS011;8161;-33.910;151.156;2023-10-19T05:00:20;3.97;;;0.80;;
16113;SDS011;8161;-33.910;151.156;2023-10-19T05:02:47;5.00;;;1.02;;
16113;SDS011;8161;-33.910;151.156;2023-10-19T05:05:17;3.63;;;0.77;;
16113;SDS011;8161;-33.910;151.156;2023-10-19T05:07:45;5.93;;;1.07;;
16113;SDS011;8161;-33.910;151.156;2023-10-19T05:10:12;5.45;;;1.13;;
16113;SDS011;8161;-33.910;151.156;2023-10-19T05:12:40;5.33;;;0.97;;
16113;SDS011;8161;-33.910;151.156;2023-10-19T05:15:07;4.93;;;1.08;;
16113;SDS011;8161;-33.910;151.156;2023-10-19T05:17:37;3.67;;;1.10;;
16113;SDS011;8161;-33.910;151.156;2023-10-19T05:20:05;3.55;;;0.80;;
16113;SDS011;8161;-33.910;151.156;2023-10-19T05:22:33;3.60;;;0.80;;
16113;SDS011;8161;-33.910;151.156;2023-10-19T05:25:00;2.92;;;0.80;;
16113;SDS011;8161;-33.910;151.156;2023-10-19T05:27:27;2.13;;;0.80;;
16113;SDS011;8161;-33.910;151.156;2023-10-19T05:29:54;4.00;;;1.00;;
16113;SDS011;8161;-33.910;151.156;2023-10-19T05:32:22;4.70;;;1.30;;
16113;SDS011;8161;-33.910;151.156;2023-10-19T05:34:49;3.72;;;1.10;;
16113;SDS011;8161;-33.910;151.156;2023-10-19T05:37:17;4.67;;;0.97;;
16113;SDS011;8161;-33.910;151.156;2023-10-19T05:39:44;4.65;;;1.00;;
16113;SDS011;8161;-33.910;151.156;2023-10-19T05:42:11;3.50;;;1.00;;
16113;SDS011;8161;-33.910;151.156;2023-10-19T05:44:38;6.07;;;1.10;;
16113;SDS011;8161;-33.910;151.156;2023-10-19T05:47:06;4.78;;;0.80;;
16113;SDS011;8161;-33.910;151.156;2023-10-19T05:49:36;5.25;;;0.93;;
16113;SDS011;8161;-33.910;151.156;2023-10-19T05:52:03;2.28;;;0.82;;
16113;SDS011;8161;-33.910;151.156;2023-10-19T05:54:31;3.60;;;0.70;;
16113;SDS011;8161;-33.910;151.156;2023-10-19T05:56:58;4.32;;;0.85;;
16113;SDS011;8161;-33.910;151.156;2023-10-19T05:59:25;6.07;;;1.05;;
16113;SDS011;8161;-33.910;151.156;2023-10-19T06:01:54;3.53;;;0.90;;
16113;SDS011;8161;-33.910;151.156;2023-10-19T06:04:22;2.55;;;0.70;;
16113;SDS011;8161;-33.910;151.156;2023-10-19T06:06:49;4.32;;;0.80;;
16113;SDS011;8161;-33.910;151.156;2023-10-19T06:09:17;2.95;;;0.73;;
16113;SDS011;8161;-33.910;151.156;2023-10-19T06:11:45;6.53;;;0.60;;
16113;SDS011;8161;-33.910;151.156;2023-10-19T06:14:12;3.05;;;0.80;;
16113;SDS011;8161;-33.910;151.156;2023-10-19T06:16:39;3.50;;;0.70;;
16113;SDS011;8161;-33.910;151.156;2023-10-19T06:19:06;3.60;;;0.88;;
16113;SDS011;8161;-33.910;151.156;2023-10-19T06:21:34;3.20;;;0.77;;
16113;SDS011;8161;-33.910;151.156;2023-10-19T06:24:02;2.40;;;0.70;;
16113;SDS011;8161;-33.910;151.156;2023-10-19T06:26:29;2.63;;;0.80;;
16113;SDS011;8161;-33.910;151.156;2023-10-19T06:28:56;4.28;;;0.90;;
16113;SDS011;8161;-33.910;151.156;2023-10-19T06:31:26;2.90;;;0.93;;
16113;SDS011;8161;-33.910;151.156;2023-10-19T06:33:54;2.38;;;0.90;;
16113;SDS011;8161;-33.910;151.156;2023-10-19T06:36:22;2.50;;;0.75;;
16113;SDS011;8161;-33.910;151.156;2023-10-19T06:38:49;7.43;;;0.90;;
16113;SDS011;8161;-33.910;151.156;2023-10-19T06:41:16;4.90;;;1.00;;
16113;SDS011;8161;-33.910;151.156;2023-10-19T06:43:44;3.72;;;1.27;;
16113;SDS011;8161;-33.910;151.156;2023-10-19T06:46:12;3.75;;;0.80;;
16113;SDS011;8161;-33.910;151.156;2023-10-19T06:48:40;2.88;;;1.00;;
16113;SDS011;8161;-33.910;151.156;2023-10-19T06:51:08;3.43;;;0.80;;
16113;SDS011;8161;-33.910;151.156;2023-10-19T06:53:35;3.60;;;0.80;;
16113;SDS011;8161;-33.910;151.156;2023-10-19T06:56:02;4.80;;;0.70;;
16113;SDS011;8161;-33.910;151.156;2023-10-19T06:58:29;2.72;;;0.73;;
16113;SDS011;8161;-33.910;151.156;2023-10-19T07:00:56;4.90;;;1.03;;
16113;SDS011;8161;-33.910;151.156;2023-10-19T07:03:31;6.35;;;1.10;;
16113;SDS011;8161;-33.910;151.156;2023-10-19T07:05:58;3.10;;;0.93;;
16113;SDS011;8161;-33.910;151.156;2023-10-19T07:08:25;4.10;;;0.80;;
16113;SDS011;8161;-33.910;151.156;2023-10-19T07:10:53;2.42;;;0.70;;
16113;SDS011;8161;-33.910;151.156;2023-10-19T07:13:20;7.45;;;1.00;;
16113;SDS011;8161;-33.910;151.156;2023-10-19T07:15:47;3.53;;;0.90;;
16113;SDS011;8161;-33.910;151.156;2023-10-19T07:18:15;3.47;;;0.90;;
16113;SDS011;8161;-33.910;151.156;2023-10-19T07:20:42;4.63;;;1.10;;
16113;SDS011;8161;-33.910;151.156;2023-10-19T07:23:14;6.90;;;1.20;;
16113;SDS011;8161;-33.910;151.156;2023-10-19T07:25:44;3.78;;;1.02;;
16113;SDS011;8161;-33.910;151.156;2023-10-19T07:28:14;4.77;;;1.17;;
16113;SDS011;8161;-33.910;151.156;2023-10-19T07:30:42;3.10;;;0.83;;
16113;SDS011;8161;-33.910;151.156;2023-10-19T07:33:10;4.97;;;1.30;;
16113;SDS011;8161;-33.910;151.156;2023-10-19T07:35:45;5.00;;;1.35;;
16113;SDS011;8161;-33.910;151.156;2023-10-19T07:38:17;4.90;;;1.30;;
16113;SDS011;8161;-33.910;151.156;2023-10-19T07:40:47;4.80;;;1.25;;
16113;SDS011;8161;-33.910;151.156;2023-10-19T07:43:14;4.10;;;1.20;;
16113;SDS011;8161;-33.910;151.156;2023-10-19T07:45:41;9.05;;;1.20;;
16113;SDS011;8161;-33.910;151.156;2023-10-19T07:48:08;5.30;;;1.10;;
16113;SDS011;8161;-33.910;151.156;2023-10-19T07:50:38;3.97;;;1.05;;
16113;SDS011;8161;-33.910;151.156;2023-10-19T07:53:09;4.07;;;1.33;;
16113;SDS011;8161;-33.910;151.156;2023-10-19T07:55:36;7.03;;;1.50;;
16113;SDS011;8161;-33.910;151.156;2023-10-19T07:58:05;7.43;;;1.48;;
16113;SDS011;8161;-33.910;151.156;2023-10-19T08:00:33;4.17;;;1.23;;
16113;SDS011;8161;-33.910;151.156;2023-10-19T08:03:00;5.72;;;1.35;;
16113;SDS011;8161;-33.910;151.156;2023-10-19T08:05:31;6.32;;;1.50;;
16113;SDS011;8161;-33.910;151.156;2023-10-19T08:07:59;6.00;;;1.48;;
16113;SDS011;8161;-33.910;151.156;2023-10-19T08:10:26;7.50;;;1.30;;
16113;SDS011;8161;-33.910;151.156;2023-10-19T08:12:53;4.67;;;1.43;;
16113;SDS011;8161;-33.910;151.156;2023-10-19T08:15:27;8.98;;;2.05;;
16113;SDS011;8161;-33.910;151.156;2023-10-19T08:17:55;7.03;;;1.50;;
16113;SDS011;8161;-33.910;151.156;2023-10-19T08:20:23;9.25;;;1.92;;
16113;SDS011;8161;-33.910;151.156;2023-10-19T08:22:53;5.28;;;1.50;;
16113;SDS011;8161;-33.910;151.156;2023-10-19T08:25:24;5.15;;;1.38;;
16113;SDS011;8161;-33.910;151.156;2023-10-19T08:27:54;7.15;;;1.63;;
16113;SDS011;8161;-33.910;151.156;2023-10-19T08:30:24;3.93;;;0.93;;
16113;SDS011;8161;-33.910;151.156;2023-10-19T08:32:52;4.88;;;1.45;;
16113;SDS011;8161;-33.910;151.156;2023-10-19T08:35:20;5.60;;;1.30;;
16113;SDS011;8161;-33.910;151.156;2023-10-19T08:37:50;5.32;;;1.40;;
16113;SDS011;8161;-33.910;151.156;2023-10-19T08:40:19;5.65;;;1.50;;
16113;SDS011;8161;-33.910;151.156;2023-10-19T08:42:48;6.80;;;1.60;;
16113;SDS011;8161;-33.910;151.156;2023-10-19T08:45:16;6.13;;;1.23;;
16113;SDS011;8161;-33.910;151.156;2023-10-19T08:47:47;6.15;;;1.50;;
16113;SDS011;8161;-33.910;151.156;2023-10-19T08:50:19;10.97;;;1.70;;
16113;SDS011;8161;-33.910;151.156;2023-10-19T08:52:49;5.32;;;1.33;;
16113;SDS011;8161;-33.910;151.156;2023-10-19T08:55:17;6.40;;;1.42;;
16113;SDS011;8161;-33.910;151.156;2023-10-19T08:57:44;4.82;;;1.40;;
16113;SDS011;8161;-33.910;151.156;2023-10-19T09:00:15;8.68;;;1.73;;
16113;SDS011;8161;-33.910;151.156;2023-10-19T09:02:47;9.05;;;1.77;;
16113;SDS011;8161;-33.910;151.156;2023-10-19T09:05:14;6.25;;;1.50;;
16113;SDS011;8161;-33.910;151.156;2023-10-19T09:07:48;5.90;;;1.10;;
16113;SDS011;8161;-33.910;151.156;2023-10-19T09:10:22;10.30;;;1.77;;
16113;SDS011;8161;-33.910;151.156;2023-10-19T09:12:59;11.65;;;1.50;;
16113;SDS011;8161;-33.910;151.156;2023-10-19T09:15:27;8.05;;;2.22;;
16113;SDS011;8161;-33.910;151.156;2023-10-19T09:17:58;9.27;;;1.55;;
16113;SDS011;8161;-33.910;151.156;2023-10-19T09:20:41;8.90;;;1.70;;
16113;SDS011;8161;-33.910;151.156;2023-10-19T09:23:18;7.13;;;1.60;;
16113;SDS011;8161;-33.910;151.156;2023-10-19T09:25:47;11.13;;;1.92;;
16113;SDS011;8161;-33.910;151.156;2023-10-19T09:28:18;8.70;;;1.77;;
16113;SDS011;8161;-33.910;151.156;2023-10-19T09:30:47;8.52;;;1.40;;
16113;SDS011;8161;-33.910;151.156;2023-10-19T09:33:18;6.87;;;1.33;;
16113;SDS011;8161;-33.910;151.156;2023-10-19T09:35:47;8.18;;;1.30;;
16113;SDS011;8161;-33.910;151.156;2023-10-19T09:38:16;11.20;;;1.98;;
16113;SDS011;8161;-33.910;151.156;2023-10-19T09:40:56;8.57;;;1.33;;
16113;SDS011;8161;-33.910;151.156;2023-10-19T09:43:39;6.65;;;1.42;;
16113;SDS011;8161;-33.910;151.156;2023-10-19T09:46:10;7.13;;;1.43;;
16113;SDS011;8161;-33.910;151.156;2023-10-19T09:48:40;6.50;;;1.42;;
16113;SDS011;8161;-33.910;151.156;2023-10-19T09:51:08;6.07;;;1.30;;
16113;SDS011;8161;-33.910;151.156;2023-10-19T09:53:36;8.88;;;1.70;;
16113;SDS011;8161;-33.910;151.156;2023-10-19T09:56:06;6.07;;;1.15;;
16113;SDS011;8161;-33.910;151.156;2023-10-19T09:58:59;8.65;;;1.77;;
16113;SDS011;8161;-33.910;151.156;2023-10-19T10:01:24;7.40;;;1.30;;
16113;SDS011;8161;-33.910;151.156;2023-10-19T10:03:52;7.70;;;1.60;;
16113;SDS011;8161;-33.910;151.156;2023-10-19T10:06:28;6.97;;;1.83;;
16113;SDS011;8161;-33.910;151.156;2023-10-19T10:09:09;10.23;;;1.75;;
16113;SDS011;8161;-33.910;151.156;2023-10-19T10:11:37;11.10;;;1.55;;
16113;SDS011;8161;-33.910;151.156;2023-10-19T10:14:04;7.07;;;1.30;;
16113;SDS011;8161;-33.910;151.156;2023-10-19T10:19:44;6.28;;;1.67;;
16113;SDS011;8161;-33.910;151.156;2023-10-19T10:22:11;7.35;;;1.50;;
16113;SDS011;8161;-33.910;151.156;2023-10-19T10:24:43;6.47;;;1.33;;
16113;SDS011;8161;-33.910;151.156;2023-10-19T10:27:11;8.80;;;1.70;;
16113;SDS011;8161;-33.910;151.156;2023-10-19T10:35:10;8.95;;;1.35;;
16113;SDS011;8161;-33.910;151.156;2023-10-19T10:38:17;6.80;;;1.23;;
16113;SDS011;8161;-33.910;151.156;2023-10-19T10:43:11;8.98;;;1.40;;
16113;SDS011;8161;-33.910;151.156;2023-10-19T10:45:38;9.45;;;1.58;;
16113;SDS011;8161;-33.910;151.156;2023-10-19T10:48:12;8.13;;;1.65;;
16113;SDS011;8161;-33.910;151.156;2023-10-19T10:50:40;6.45;;;1.30;;
16113;SDS011;8161;-33.910;151.156;2023-10-19T10:53:08;9.40;;;1.10;;
16113;SDS011;8161;-33.910;151.156;2023-10-19T10:55:37;8.93;;;2.17;;
16113;SDS011;8161;-33.910;151.156;2023-10-19T10:58:05;7.18;;;1.70;;
16113;SDS011;8161;-33.910;151.156;2023-10-19T11:00:32;9.73;;;1.40;;
16113;SDS011;8161;-33.910;151.156;2023-10-19T11:03:02;7.65;;;1.40;;
16113;SDS011;8161;-33.910;151.156;2023-10-19T11:05:30;6.68;;;1.00;;
16113;SDS011;8161;-33.910;151.156;2023-10-19T11:10:32;7.57;;;1.30;;
16113;SDS011;8161;-33.910;151.156;2023-10-19T11:13:00;9.35;;;1.23;;
16113;SDS011;8161;-33.910;151.156;2023-10-19T11:15:28;7.07;;;1.30;;
16113;SDS011;8161;-33.910;151.156;2023-10-19T11:17:55;8.48;;;1.52;;
16113;SDS011;8161;-33.910;151.156;2023-10-19T11:20:23;13.25;;;3.28;;
16113;SDS011;8161;-33.910;151.156;2023-10-19T11:22:57;7.07;;;1.25;;
16113;SDS011;8161;-33.910;151.156;2023-10-19T11:25:28;9.02;;;1.40;;
16113;SDS011;8161;-33.910;151.156;2023-10-19T11:27:56;6.15;;;1.00;;
16113;SDS011;8161;-33.910;151.156;2023-10-19T11:30:31;7.50;;;1.63;;
16113;SDS011;8161;-33.910;151.156;2023-10-19T11:32:59;7.87;;;1.07;;
16113;SDS011;8161;-33.910;151.156;2023-10-19T11:35:28;10.17;;;1.40;;
16113;SDS011;8161;-33.910;151.156;2023-10-19T11:37:59;5.93;;;1.20;;
16113;SDS011;8161;-33.910;151.156;2023-10-19T11:40:30;7.38;;;1.42;;
16113;SDS011;8161;-33.910;151.156;2023-10-19T11:42:57;4.88;;;1.00;;
16113;SDS011;8161;-33.910;151.156;2023-10-19T11:45:26;9.88;;;1.50;;
16113;SDS011;8161;-33.910;151.156;2023-10-19T11:47:54;8.43;;;1.48;;
16113;SDS011;8161;-33.910;151.156;2023-10-19T11:50:22;11.63;;;1.73;;
16113;SDS011;8161;-33.910;151.156;2023-10-19T11:52:50;6.17;;;1.33;;
16113;SDS011;8161;-33.910;151.156;2023-10-19T11:55:18;9.25;;;1.50;;
16113;SDS011;8161;-33.910;151.156;2023-10-19T11:57:46;8.90;;;1.50;;
16113;SDS011;8161;-33.910;151.156;2023-10-19T12:00:14;9.15;;;1.33;;
16113;SDS011;8161;-33.910;151.156;2023-10-19T12:02:50;6.93;;;1.25;;
16113;SDS011;8161;-33.910;151.156;2023-10-19T12:05:18;5.40;;;1.30;;
16113;SDS011;8161;-33.910;151.156;2023-10-19T12:07:45;10.13;;;1.52;;
16113;SDS011;8161;-33.910;151.156;2023-10-19T12:10:17;10.07;;;1.80;;
16113;SDS011;8161;-33.910;151.156;2023-10-19T12:12:53;9.50;;;1.92;;
16113;SDS011;8161;-33.910;151.156;2023-10-19T12:15:22;7.20;;;1.30;;
16113;SDS011;8161;-33.910;151.156;2023-10-19T12:17:51;6.78;;;1.25;;
16113;SDS011;8161;-33.910;151.156;2023-10-19T12:20:20;7.20;;;1.42;;
16113;SDS011;8161;-33.910;151.156;2023-10-19T12:22:50;9.60;;;1.55;;
16113;SDS011;8161;-33.910;151.156;2023-10-19T12:25:19;5.63;;;1.35;;
16113;SDS011;8161;-33.910;151.156;2023-10-19T12:27:54;7.85;;;1.40;;
16113;SDS011;8161;-33.910;151.156;2023-10-19T12:30:25;8.18;;;1.40;;
16113;SDS011;8161;-33.910;151.156;2023-10-19T12:33:00;5.82;;;1.25;;
16113;SDS011;8161;-33.910;151.156;2023-10-19T12:35:30;8.07;;;1.43;;
16113;SDS011;8161;-33.910;151.156;2023-10-19T12:38:11;7.10;;;1.87;;
16113;SDS011;8161;-33.910;151.156;2023-10-19T12:40:42;7.95;;;1.45;;
16113;SDS011;8161;-33.910;151.156;2023-10-19T12:43:12;7.38;;;1.27;;
16113;SDS011;8161;-33.910;151.156;2023-10-19T12:45:40;7.55;;;1.17;;
16113;SDS011;8161;-33.910;151.156;2023-10-19T12:48:09;5.13;;;1.30;;
16113;SDS011;8161;-33.910;151.156;2023-10-19T12:50:37;8.63;;;1.75;;
16113;SDS011;8161;-33.910;151.156;2023-10-19T12:53:06;6.32;;;1.30;;
16113;SDS011;8161;-33.910;151.156;2023-10-19T12:55:34;7.10;;;1.38;;
16113;SDS011;8161;-33.910;151.156;2023-10-19T12:58:04;5.80;;;1.30;;
16113;SDS011;8161;-33.910;151.156;2023-10-19T13:00:40;7.68;;;1.80;;
16113;SDS011;8161;-33.910;151.156;2023-10-19T13:03:10;6.20;;;1.50;;
16113;SDS011;8161;-33.910;151.156;2023-10-19T13:05:42;6.55;;;1.38;;
16113;SDS011;8161;-33.910;151.156;2023-10-19T13:08:12;6.33;;;1.60;;
16113;SDS011;8161;-33.910;151.156;2023-10-19T13:10:41;5.32;;;1.60;;
16113;SDS011;8161;-33.910;151.156;2023-10-19T13:13:10;8.13;;;1.58;;
16113;SDS011;8161;-33.910;151.156;2023-10-19T13:15:43;8.30;;;1.80;;
16113;SDS011;8161;-33.910;151.156;2023-10-19T13:18:13;7.65;;;1.38;;
16113;SDS011;8161;-33.910;151.156;2023-10-19T13:20:47;3.70;;;1.27;;
16113;SDS011;8161;-33.910;151.156;2023-10-19T13:23:15;5.18;;;1.42;;
16113;SDS011;8161;-33.910;151.156;2023-10-19T13:25:42;6.93;;;1.58;;
16113;SDS011;8161;-33.910;151.156;2023-10-19T13:28:19;7.15;;;1.70;;
16113;SDS011;8161;-33.910;151.156;2023-10-19T13:30:48;5.40;;;1.27;;
16113;SDS011;8161;-33.910;151.156;2023-10-19T13:33:17;9.85;;;1.58;;
16113;SDS011;8161;-33.910;151.156;2023-10-19T13:35:46;9.43;;;1.65;;
16113;SDS011;8161;-33.910;151.156;2023-10-19T13:38:15;7.20;;;1.52;;
16113;SDS011;8161;-33.910;151.156;2023-10-19T13:40:43;5.53;;;1.35;;
16113;SDS011;8161;-33.910;151.156;2023-10-19T13:43:11;6.07;;;1.30;;
16113;SDS011;8161;-33.910;151.156;2023-10-19T13:45:43;7.68;;;1.40;;
16113;SDS011;8161;-33.910;151.156;2023-10-19T13:48:13;7.68;;;1.50;;
16113;SDS011;8161;-33.910;151.156;2023-10-19T13:50:47;5.97;;;1.58;;
16113;SDS011;8161;-33.910;151.156;2023-10-19T13:53:15;6.80;;;1.77;;
16113;SDS011;8161;-33.910;151.156;2023-10-19T13:55:43;8.02;;;1.63;;
16113;SDS011;8161;-33.910;151.156;2023-10-19T13:58:11;6.25;;;1.52;;
16113;SDS011;8161;-33.910;151.156;2023-10-19T14:00:41;6.70;;;1.60;;
16113;SDS011;8161;-33.910;151.156;2023-10-19T14:03:09;7.13;;;1.52;;
16113;SDS011;8161;-33.910;151.156;2023-10-19T14:05:41;9.65;;;2.03;;
16113;SDS011;8161;-33.910;151.156;2023-10-19T14:08:13;7.32;;;2.03;;
16113;SDS011;8161;-33.910;151.156;2023-10-19T14:10:41;8.63;;;1.70;;
16113;SDS011;8161;-33.910;151.156;2023-10-19T14:13:09;11.05;;;2.00;;
16113;SDS011;8161;-33.910;151.156;2023-10-19T14:15:42;6.05;;;1.55;;
16113;SDS011;8161;-33.910;151.156;2023-10-19T14:18:10;6.55;;;1.63;;
16113;SDS011;8161;-33.910;151.156;2023-10-19T14:20:37;6.47;;;1.77;;
16113;SDS011;8161;-33.910;151.156;2023-10-19T14:23:06;6.10;;;1.85;;
16113;SDS011;8161;-33.910;151.156;2023-10-19T14:25:36;6.15;;;1.60;;
16113;SDS011;8161;-33.910;151.156;2023-10-19T14:28:08;7.10;;;1.73;;
16113;SDS011;8161;-33.910;151.156;2023-10-19T14:30:35;7.18;;;1.70;;
16113;SDS011;8161;-33.910;151.156;2023-10-19T14:33:02;7.33;;;1.83;;
16113;SDS011;8161;-33.910;151.156;2023-10-19T14:35:36;8.02;;;2.00;;
16113;SDS011;8161;-33.910;151.156;2023-10-19T14:38:07;7.23;;;2.10;;
16113;SDS011;8161;-33.910;151.156;2023-10-19T14:40:35;8.20;;;1.85;;
16113;SDS011;8161;-33.910;151.156;2023-10-19T14:43:02;8.48;;;2.10;;
16113;SDS011;8161;-33.910;151.156;2023-10-19T14:45:30;8.73;;;2.08;;
16113;SDS011;8161;-33.910;151.156;2023-10-19T14:47:58;7.43;;;1.77;;
16113;SDS011;8161;-33.910;151.156;2023-10-19T14:50:29;10.23;;;1.88;;
16113;SDS011;8161;-33.910;151.156;2023-10-19T14:52:57;6.47;;;1.83;;
16113;SDS011;8161;-33.910;151.156;2023-10-19T14:55:24;5.47;;;1.80;;
16113;SDS011;8161;-33.910;151.156;2023-10-19T14:57:53;5.95;;;1.92;;